Terminal Aerodrome Forecast
Issued by NWS Quad Cities IA IL

Home | Current Version | Previous Version | Text Only | Print | Product List | Glossary On
Versions: 1 2 3 4 5 6 7 8 9 10 11 12 13 14 15 16 17 18
000
FTUS43 KDVN 290405 AAB
TAFDBQ
TAF AMD
KDBQ 290405Z 2904/2924 02006KT P6SM SCT009 OVC015
      TEMPO 2904/2908 BKN009
     FM290800 35006KT P6SM BKN007 OVC015
     FM291600 35007KT P6SM BKN025
     FM291900 01011KT P6SM BKN035=

USA.gov is the U.S. government's official web portal to all federal, state and local government web resources and services.